sensor_id;sensor_type;location;lat;lon;timestamp;P1;durP1;ratioP1;P2;durP2;ratioP2
13309;SDS011;6723;48.256;16.402;2023-07-13T00:01:51;3.40;;;2.00;;
13309;SDS011;6723;48.256;16.402;2023-07-13T00:04:17;3.83;;;2.33;;
13309;SDS011;6723;48.256;16.402;2023-07-13T00:06:46;2.13;;;1.93;;
13309;SDS011;6723;48.256;16.402;2023-07-13T00:09:15;2.77;;;2.00;;
13309;SDS011;6723;48.256;16.402;2023-07-13T00:11:43;2.87;;;2.10;;
13309;SDS011;6723;48.256;16.402;2023-07-13T00:14:11;2.23;;;1.87;;
13309;SDS011;6723;48.256;16.402;2023-07-13T00:16:38;2.87;;;2.00;;
13309;SDS011;6723;48.256;16.402;2023-07-13T00:19:07;5.17;;;2.33;;
13309;SDS011;6723;48.256;16.402;2023-07-13T00:21:33;2.97;;;2.23;;
13309;SDS011;6723;48.256;16.402;2023-07-13T00:23:59;4.33;;;2.03;;
13309;SDS011;6723;48.256;16.402;2023-07-13T00:26:26;2.93;;;2.07;;
13309;SDS011;6723;48.256;16.402;2023-07-13T00:28:52;3.00;;;2.23;;
13309;SDS011;6723;48.256;16.402;2023-07-13T00:31:18;5.13;;;2.13;;
13309;SDS011;6723;48.256;16.402;2023-07-13T00:33:44;4.93;;;2.10;;
13309;SDS011;6723;48.256;16.402;2023-07-13T00:36:10;3.17;;;2.30;;
13309;SDS011;6723;48.256;16.402;2023-07-13T00:38:37;3.40;;;2.10;;
13309;SDS011;6723;48.256;16.402;2023-07-13T00:41:03;3.37;;;2.10;;
13309;SDS011;6723;48.256;16.402;2023-07-13T00:43:29;5.67;;;2.23;;
13309;SDS011;6723;48.256;16.402;2023-07-13T00:48:22;3.60;;;1.90;;
13309;SDS011;6723;48.256;16.402;2023-07-13T00:50:53;3.67;;;2.27;;
13309;SDS011;6723;48.256;16.402;2023-07-13T00:53:21;2.50;;;2.00;;
13309;SDS011;6723;48.256;16.402;2023-07-13T00:55:50;3.17;;;1.63;;
13309;SDS011;6723;48.256;16.402;2023-07-13T00:58:17;1.73;;;1.63;;
13309;SDS011;6723;48.256;16.402;2023-07-13T01:00:43;1.70;;;1.60;;
13309;SDS011;6723;48.256;16.402;2023-07-13T01:03:11;3.90;;;1.60;;
13309;SDS011;6723;48.256;16.402;2023-07-13T01:05:37;2.53;;;1.60;;
13309;SDS011;6723;48.256;16.402;2023-07-13T01:08:04;4.20;;;1.20;;
13309;SDS011;6723;48.256;16.402;2023-07-13T01:10:36;1.67;;;1.40;;
13309;SDS011;6723;48.256;16.402;2023-07-13T01:13:08;2.27;;;1.50;;
13309;SDS011;6723;48.256;16.402;2023-07-13T01:15:43;1.83;;;1.50;;
13309;SDS011;6723;48.256;16.402;2023-07-13T01:18:11;1.50;;;1.20;;
13309;SDS011;6723;48.256;16.402;2023-07-13T01:21:03;2.10;;;1.10;;
13309;SDS011;6723;48.256;16.402;2023-07-13T01:23:29;1.20;;;1.10;;
13309;SDS011;6723;48.256;16.402;2023-07-13T01:25:57;2.63;;;1.60;;
13309;SDS011;6723;48.256;16.402;2023-07-13T01:28:24;2.00;;;1.27;;
13309;SDS011;6723;48.256;16.402;2023-07-13T01:30:55;1.90;;;1.30;;
13309;SDS011;6723;48.256;16.402;2023-07-13T01:33:23;2.70;;;1.30;;
13309;SDS011;6723;48.256;16.402;2023-07-13T01:35:49;2.03;;;1.23;;
13309;SDS011;6723;48.256;16.402;2023-07-13T01:38:18;3.60;;;1.40;;
13309;SDS011;6723;48.256;16.402;2023-07-13T01:40:46;1.13;;;1.07;;
13309;SDS011;6723;48.256;16.402;2023-07-13T01:43:12;1.73;;;1.30;;
13309;SDS011;6723;48.256;16.402;2023-07-13T01:45:38;2.30;;;1.30;;
13309;SDS011;6723;48.256;16.402;2023-07-13T01:48:04;2.83;;;1.20;;
13309;SDS011;6723;48.256;16.402;2023-07-13T01:50:32;2.17;;;1.40;;
13309;SDS011;6723;48.256;16.402;2023-07-13T01:52:58;1.57;;;1.30;;
13309;SDS011;6723;48.256;16.402;2023-07-13T01:55:24;2.10;;;1.27;;
13309;SDS011;6723;48.256;16.402;2023-07-13T01:57:49;1.67;;;1.23;;
13309;SDS011;6723;48.256;16.402;2023-07-13T02:00:15;1.80;;;1.33;;
13309;SDS011;6723;48.256;16.402;2023-07-13T02:02:42;2.33;;;1.53;;
13309;SDS011;6723;48.256;16.402;2023-07-13T02:05:09;1.90;;;1.60;;
13309;SDS011;6723;48.256;16.402;2023-07-13T02:07:35;2.10;;;1.37;;
13309;SDS011;6723;48.256;16.402;2023-07-13T02:10:01;3.33;;;1.60;;
13309;SDS011;6723;48.256;16.402;2023-07-13T02:12:27;2.10;;;1.37;;
13309;SDS011;6723;48.256;16.402;2023-07-13T02:14:53;1.67;;;1.30;;
13309;SDS011;6723;48.256;16.402;2023-07-13T02:17:18;1.97;;;1.50;;
13309;SDS011;6723;48.256;16.402;2023-07-13T02:19:44;2.13;;;1.33;;
13309;SDS011;6723;48.256;16.402;2023-07-13T02:22:10;2.90;;;1.30;;
13309;SDS011;6723;48.256;16.402;2023-07-13T02:24:35;1.57;;;1.47;;
13309;SDS011;6723;48.256;16.402;2023-07-13T02:27:03;3.13;;;1.70;;
13309;SDS011;6723;48.256;16.402;2023-07-13T02:29:29;1.83;;;1.50;;
13309;SDS011;6723;48.256;16.402;2023-07-13T02:31:55;2.20;;;1.70;;
13309;SDS011;6723;48.256;16.402;2023-07-13T02:34:20;1.83;;;1.50;;
13309;SDS011;6723;48.256;16.402;2023-07-13T02:36:53;2.40;;;1.47;;
13309;SDS011;6723;48.256;16.402;2023-07-13T02:39:19;2.10;;;1.40;;
13309;SDS011;6723;48.256;16.402;2023-07-13T02:41:44;1.73;;;1.60;;
13309;SDS011;6723;48.256;16.402;2023-07-13T02:44:12;2.03;;;1.60;;
13309;SDS011;6723;48.256;16.402;2023-07-13T02:46:38;2.43;;;1.70;;
13309;SDS011;6723;48.256;16.402;2023-07-13T02:49:04;2.87;;;1.97;;
13309;SDS011;6723;48.256;16.402;2023-07-13T02:51:31;2.60;;;1.83;;
13309;SDS011;6723;48.256;16.402;2023-07-13T02:53:59;2.00;;;1.63;;
13309;SDS011;6723;48.256;16.402;2023-07-13T02:56:27;1.90;;;1.70;;
13309;SDS011;6723;48.256;16.402;2023-07-13T02:58:54;2.27;;;1.90;;
13309;SDS011;6723;48.256;16.402;2023-07-13T03:01:20;2.30;;;2.00;;
13309;SDS011;6723;48.256;16.402;2023-07-13T03:03:47;4.97;;;1.90;;
13309;SDS011;6723;48.256;16.402;2023-07-13T03:06:14;2.87;;;1.97;;
13309;SDS011;6723;48.256;16.402;2023-07-13T03:08:41;3.90;;;1.90;;
13309;SDS011;6723;48.256;16.402;2023-07-13T03:11:12;4.00;;;2.00;;
13309;SDS011;6723;48.256;16.402;2023-07-13T03:13:40;2.77;;;1.90;;
13309;SDS011;6723;48.256;16.402;2023-07-13T03:16:07;3.17;;;1.87;;
13309;SDS011;6723;48.256;16.402;2023-07-13T03:18:34;3.97;;;2.10;;
13309;SDS011;6723;48.256;16.402;2023-07-13T03:21:01;4.87;;;2.20;;
13309;SDS011;6723;48.256;16.402;2023-07-13T03:23:27;5.20;;;2.70;;
13309;SDS011;6723;48.256;16.402;2023-07-13T03:26:35;2.20;;;1.97;;
13309;SDS011;6723;48.256;16.402;2023-07-13T03:28:43;4.37;;;2.00;;
13309;SDS011;6723;48.256;16.402;2023-07-13T03:31:11;3.23;;;1.90;;
13309;SDS011;6723;48.256;16.402;2023-07-13T03:33:40;3.87;;;2.63;;
13309;SDS011;6723;48.256;16.402;2023-07-13T03:36:06;3.77;;;2.40;;
13309;SDS011;6723;48.256;16.402;2023-07-13T03:38:33;3.27;;;2.17;;
13309;SDS011;6723;48.256;16.402;2023-07-13T03:40:59;4.60;;;2.43;;
13309;SDS011;6723;48.256;16.402;2023-07-13T03:43:25;5.17;;;2.10;;
13309;SDS011;6723;48.256;16.402;2023-07-13T03:45:52;3.03;;;2.17;;
13309;SDS011;6723;48.256;16.402;2023-07-13T03:48:17;3.07;;;2.00;;
13309;SDS011;6723;48.256;16.402;2023-07-13T03:50:43;3.37;;;2.13;;
13309;SDS011;6723;48.256;16.402;2023-07-13T03:53:09;2.97;;;2.17;;
13309;SDS011;6723;48.256;16.402;2023-07-13T03:55:35;4.00;;;2.20;;
13309;SDS011;6723;48.256;16.402;2023-07-13T03:58:22;5.43;;;2.00;;
13309;SDS011;6723;48.256;16.402;2023-07-13T04:00:52;2.93;;;2.20;;
13309;SDS011;6723;48.256;16.402;2023-07-13T04:03:18;4.73;;;2.13;;
13309;SDS011;6723;48.256;16.402;2023-07-13T04:05:44;5.07;;;2.73;;
13309;SDS011;6723;48.256;16.402;2023-07-13T04:08:10;3.37;;;2.00;;
13309;SDS011;6723;48.256;16.402;2023-07-13T04:10:35;7.80;;;2.97;;
13309;SDS011;6723;48.256;16.402;2023-07-13T04:13:01;3.50;;;2.57;;
13309;SDS011;6723;48.256;16.402;2023-07-13T04:15:29;7.20;;;3.13;;
13309;SDS011;6723;48.256;16.402;2023-07-13T04:17:56;5.97;;;3.07;;
13309;SDS011;6723;48.256;16.402;2023-07-13T04:20:22;4.10;;;2.50;;
13309;SDS011;6723;48.256;16.402;2023-07-13T04:22:50;6.67;;;3.03;;
13309;SDS011;6723;48.256;16.402;2023-07-13T04:25:16;5.70;;;3.33;;
13309;SDS011;6723;48.256;16.402;2023-07-13T04:27:42;6.70;;;3.40;;
13309;SDS011;6723;48.256;16.402;2023-07-13T04:30:08;4.00;;;2.40;;
13309;SDS011;6723;48.256;16.402;2023-07-13T04:32:34;3.97;;;2.70;;
13309;SDS011;6723;48.256;16.402;2023-07-13T04:35:01;4.57;;;2.50;;
13309;SDS011;6723;48.256;16.402;2023-07-13T04:37:26;5.90;;;3.40;;
13309;SDS011;6723;48.256;16.402;2023-07-13T04:39:52;5.47;;;3.10;;
13309;SDS011;6723;48.256;16.402;2023-07-13T04:42:18;3.47;;;2.60;;
13309;SDS011;6723;48.256;16.402;2023-07-13T04:44:48;4.23;;;2.53;;
13309;SDS011;6723;48.256;16.402;2023-07-13T04:47:14;5.73;;;3.13;;
13309;SDS011;6723;48.256;16.402;2023-07-13T04:49:40;5.77;;;3.70;;
13309;SDS011;6723;48.256;16.402;2023-07-13T04:52:06;4.30;;;2.63;;
13309;SDS011;6723;48.256;16.402;2023-07-13T04:54:35;6.27;;;3.40;;
13309;SDS011;6723;48.256;16.402;2023-07-13T04:57:02;4.57;;;3.20;;
13309;SDS011;6723;48.256;16.402;2023-07-13T04:59:31;4.70;;;3.00;;
13309;SDS011;6723;48.256;16.402;2023-07-13T05:02:01;3.30;;;2.43;;
13309;SDS011;6723;48.256;16.402;2023-07-13T05:04:36;3.90;;;2.80;;
13309;SDS011;6723;48.256;16.402;2023-07-13T05:07:04;2.93;;;2.63;;
13309;SDS011;6723;48.256;16.402;2023-07-13T05:09:31;4.00;;;2.80;;
13309;SDS011;6723;48.256;16.402;2023-07-13T05:11:57;9.50;;;3.60;;
13309;SDS011;6723;48.256;16.402;2023-07-13T05:14:23;4.40;;;3.40;;
13309;SDS011;6723;48.256;16.402;2023-07-13T05:16:48;4.67;;;3.20;;
13309;SDS011;6723;48.256;16.402;2023-07-13T05:19:14;5.80;;;3.07;;
13309;SDS011;6723;48.256;16.402;2023-07-13T05:21:40;5.57;;;2.80;;
13309;SDS011;6723;48.256;16.402;2023-07-13T05:24:06;5.90;;;2.70;;
13309;SDS011;6723;48.256;16.402;2023-07-13T05:26:32;4.73;;;2.67;;
13309;SDS011;6723;48.256;16.402;2023-07-13T05:28:58;7.40;;;2.87;;
13309;SDS011;6723;48.256;16.402;2023-07-13T05:31:23;3.33;;;2.50;;
13309;SDS011;6723;48.256;16.402;2023-07-13T05:33:49;4.87;;;2.93;;
13309;SDS011;6723;48.256;16.402;2023-07-13T05:36:15;3.00;;;2.30;;
13309;SDS011;6723;48.256;16.402;2023-07-13T05:38:41;3.33;;;2.53;;
13309;SDS011;6723;48.256;16.402;2023-07-13T05:41:07;4.70;;;2.70;;
13309;SDS011;6723;48.256;16.402;2023-07-13T05:43:33;4.00;;;2.80;;
13309;SDS011;6723;48.256;16.402;2023-07-13T05:45:59;3.47;;;2.13;;
13309;SDS011;6723;48.256;16.402;2023-07-13T05:48:25;5.20;;;2.50;;
13309;SDS011;6723;48.256;16.402;2023-07-13T05:50:51;4.20;;;2.60;;
13309;SDS011;6723;48.256;16.402;2023-07-13T05:53:16;3.47;;;2.40;;
13309;SDS011;6723;48.256;16.402;2023-07-13T05:55:43;2.93;;;2.47;;
13309;SDS011;6723;48.256;16.402;2023-07-13T05:58:12;4.40;;;2.50;;
13309;SDS011;6723;48.256;16.402;2023-07-13T06:00:38;4.30;;;2.60;;
13309;SDS011;6723;48.256;16.402;2023-07-13T06:03:05;4.27;;;3.13;;
13309;SDS011;6723;48.256;16.402;2023-07-13T06:05:32;5.50;;;2.90;;
13309;SDS011;6723;48.256;16.402;2023-07-13T06:07:59;5.50;;;2.87;;
13309;SDS011;6723;48.256;16.402;2023-07-13T06:10:25;6.17;;;3.57;;
13309;SDS011;6723;48.256;16.402;2023-07-13T06:12:51;11.73;;;4.10;;
13309;SDS011;6723;48.256;16.402;2023-07-13T06:15:17;7.80;;;4.97;;
13309;SDS011;6723;48.256;16.402;2023-07-13T06:17:43;5.53;;;4.20;;
13309;SDS011;6723;48.256;16.402;2023-07-13T06:20:09;6.53;;;2.80;;
13309;SDS011;6723;48.256;16.402;2023-07-13T06:22:35;3.67;;;2.13;;
13309;SDS011;6723;48.256;16.402;2023-07-13T06:25:00;3.00;;;1.90;;
13309;SDS011;6723;48.256;16.402;2023-07-13T06:27:26;2.90;;;1.90;;
13309;SDS011;6723;48.256;16.402;2023-07-13T06:29:52;2.33;;;1.60;;
13309;SDS011;6723;48.256;16.402;2023-07-13T06:32:18;1.70;;;1.60;;
13309;SDS011;6723;48.256;16.402;2023-07-13T06:34:43;2.10;;;1.40;;
13309;SDS011;6723;48.256;16.402;2023-07-13T06:37:09;2.20;;;1.70;;
13309;SDS011;6723;48.256;16.402;2023-07-13T06:39:35;3.83;;;1.93;;
13309;SDS011;6723;48.256;16.402;2023-07-13T06:42:01;2.53;;;1.50;;
13309;SDS011;6723;48.256;16.402;2023-07-13T06:44:27;2.23;;;1.50;;
13309;SDS011;6723;48.256;16.402;2023-07-13T06:46:52;1.80;;;1.30;;
13309;SDS011;6723;48.256;16.402;2023-07-13T06:49:18;4.27;;;1.53;;
13309;SDS011;6723;48.256;16.402;2023-07-13T06:51:44;1.67;;;1.50;;
13309;SDS011;6723;48.256;16.402;2023-07-13T06:54:10;2.43;;;1.60;;
13309;SDS011;6723;48.256;16.402;2023-07-13T06:56:35;2.53;;;1.33;;
13309;SDS011;6723;48.256;16.402;2023-07-13T06:59:01;1.90;;;1.67;;
13309;SDS011;6723;48.256;16.402;2023-07-13T07:01:27;2.83;;;1.43;;
13309;SDS011;6723;48.256;16.402;2023-07-13T07:03:53;1.63;;;1.40;;
13309;SDS011;6723;48.256;16.402;2023-07-13T07:06:19;3.77;;;1.60;;
13309;SDS011;6723;48.256;16.402;2023-07-13T07:08:49;2.43;;;1.23;;
13309;SDS011;6723;48.256;16.402;2023-07-13T07:11:17;3.37;;;1.37;;
13309;SDS011;6723;48.256;16.402;2023-07-13T07:13:47;2.43;;;1.67;;
13309;SDS011;6723;48.256;16.402;2023-07-13T07:16:13;2.93;;;1.10;;
13309;SDS011;6723;48.256;16.402;2023-07-13T07:18:39;2.40;;;1.30;;
13309;SDS011;6723;48.256;16.402;2023-07-13T07:21:05;2.00;;;1.60;;
13309;SDS011;6723;48.256;16.402;2023-07-13T07:23:31;1.33;;;1.23;;
13309;SDS011;6723;48.256;16.402;2023-07-13T07:25:57;1.80;;;1.30;;
13309;SDS011;6723;48.256;16.402;2023-07-13T07:28:23;1.30;;;1.20;;
13309;SDS011;6723;48.256;16.402;2023-07-13T07:30:52;1.37;;;1.20;;
13309;SDS011;6723;48.256;16.402;2023-07-13T07:33:19;1.60;;;1.20;;
13309;SDS011;6723;48.256;16.402;2023-07-13T07:35:45;2.00;;;1.30;;
13309;SDS011;6723;48.256;16.402;2023-07-13T07:38:10;2.17;;;1.40;;
13309;SDS011;6723;48.256;16.402;2023-07-13T07:40:37;2.80;;;1.40;;
13309;SDS011;6723;48.256;16.402;2023-07-13T07:43:05;1.00;;;1.00;;
13309;SDS011;6723;48.256;16.402;2023-07-13T07:45:32;2.23;;;1.10;;
13309;SDS011;6723;48.256;16.402;2023-07-13T07:47:58;1.90;;;1.30;;
13309;SDS011;6723;48.256;16.402;2023-07-13T07:50:24;1.57;;;1.20;;
13309;SDS011;6723;48.256;16.402;2023-07-13T07:52:51;2.20;;;1.20;;
13309;SDS011;6723;48.256;16.402;2023-07-13T07:55:17;2.30;;;1.20;;
13309;SDS011;6723;48.256;16.402;2023-07-13T07:57:43;1.80;;;1.30;;
13309;SDS011;6723;48.256;16.402;2023-07-13T08:00:09;3.20;;;1.30;;
13309;SDS011;6723;48.256;16.402;2023-07-13T08:02:35;1.07;;;1.07;;
13309;SDS011;6723;48.256;16.402;2023-07-13T08:05:01;2.93;;;1.40;;
13309;SDS011;6723;48.256;16.402;2023-07-13T08:07:27;1.73;;;1.30;;
13309;SDS011;6723;48.256;16.402;2023-07-13T08:09:53;1.50;;;1.40;;
13309;SDS011;6723;48.256;16.402;2023-07-13T08:12:19;1.40;;;1.20;;
13309;SDS011;6723;48.256;16.402;2023-07-13T08:14:45;1.10;;;1.00;;
13309;SDS011;6723;48.256;16.402;2023-07-13T08:17:18;2.20;;;1.17;;
13309;SDS011;6723;48.256;16.402;2023-07-13T08:19:45;4.50;;;1.10;;
13309;SDS011;6723;48.256;16.402;2023-07-13T08:22:11;4.30;;;1.30;;
13309;SDS011;6723;48.256;16.402;2023-07-13T08:24:37;1.47;;;1.20;;
13309;SDS011;6723;48.256;16.402;2023-07-13T08:27:03;3.07;;;1.23;;
13309;SDS011;6723;48.256;16.402;2023-07-13T08:29:29;1.45;;;1.10;;
13309;SDS011;6723;48.256;16.402;2023-07-13T08:31:59;3.70;;;1.23;;
13309;SDS011;6723;48.256;16.402;2023-07-13T08:34:25;0.85;;;0.85;;
13309;SDS011;6723;48.256;16.402;2023-07-13T08:36:51;1.10;;;1.00;;
13309;SDS011;6723;48.256;16.402;2023-07-13T08:39:17;2.75;;;1.50;;
13309;SDS011;6723;48.256;16.402;2023-07-13T08:41:46;1.83;;;1.30;;
13309;SDS011;6723;48.256;16.402;2023-07-13T08:44:23;1.40;;;1.30;;
13309;SDS011;6723;48.256;16.402;2023-07-13T08:47:00;1.70;;;1.60;;
13309;SDS011;6723;48.256;16.402;2023-07-13T08:49:27;2.13;;;1.50;;
13309;SDS011;6723;48.256;16.402;2023-07-13T08:51:54;2.17;;;1.60;;
13309;SDS011;6723;48.256;16.402;2023-07-13T08:54:37;1.83;;;1.60;;
13309;SDS011;6723;48.256;16.402;2023-07-13T08:57:16;2.30;;;1.60;;
13309;SDS011;6723;48.256;16.402;2023-07-13T08:59:45;2.90;;;1.60;;
13309;SDS011;6723;48.256;16.402;2023-07-13T09:05:03;2.70;;;1.50;;
13309;SDS011;6723;48.256;16.402;2023-07-13T09:10:32;2.25;;;1.70;;
13309;SDS011;6723;48.256;16.402;2023-07-13T09:15:51;3.35;;;1.90;;
13309;SDS011;6723;48.256;16.402;2023-07-13T09:21:17;2.92;;;1.92;;
13309;SDS011;6723;48.256;16.402;2023-07-13T09:23:43;3.47;;;2.17;;
13309;SDS011;6723;48.256;16.402;2023-07-13T09:26:11;2.65;;;1.83;;
13309;SDS011;6723;48.256;16.402;2023-07-13T09:28:39;3.05;;;2.30;;
13309;SDS011;6723;48.256;16.402;2023-07-13T09:31:12;2.80;;;2.40;;
13309;SDS011;6723;48.256;16.402;2023-07-13T09:33:41;4.93;;;2.50;;
13309;SDS011;6723;48.256;16.402;2023-07-13T09:36:27;3.20;;;2.83;;
13309;SDS011;6723;48.256;16.402;2023-07-13T09:39:05;3.17;;;2.87;;
13309;SDS011;6723;48.256;16.402;2023-07-13T09:47:02;4.32;;;2.80;;
13309;SDS011;6723;48.256;16.402;2023-07-13T09:49:29;4.47;;;2.90;;
13309;SDS011;6723;48.256;16.402;2023-07-13T09:52:00;2.95;;;2.40;;
13309;SDS011;6723;48.256;16.402;2023-07-13T09:54:35;3.17;;;2.70;;
13309;SDS011;6723;48.256;16.402;2023-07-13T09:57:03;2.90;;;2.60;;
13309;SDS011;6723;48.256;16.402;2023-07-13T09:59:40;3.90;;;3.30;;
13309;SDS011;6723;48.256;16.402;2023-07-13T10:02:25;5.40;;;2.97;;
13309;SDS011;6723;48.256;16.402;2023-07-13T10:04:58;5.87;;;3.33;;
13309;SDS011;6723;48.256;16.402;2023-07-13T10:07:25;6.03;;;3.20;;
13309;SDS011;6723;48.256;16.402;2023-07-13T10:09:55;4.67;;;3.13;;
13309;SDS011;6723;48.256;16.402;2023-07-13T10:12:22;4.67;;;3.37;;
13309;SDS011;6723;48.256;16.402;2023-07-13T10:14:50;4.90;;;3.40;;
13309;SDS011;6723;48.256;16.402;2023-07-13T10:17:24;4.80;;;2.90;;
13309;SDS011;6723;48.256;16.402;2023-07-13T10:19:56;4.95;;;3.03;;
13309;SDS011;6723;48.256;16.402;2023-07-13T10:22:36;3.90;;;2.90;;
13309;SDS011;6723;48.256;16.402;2023-07-13T10:25:15;4.63;;;3.03;;
13309;SDS011;6723;48.256;16.402;2023-07-13T10:27:43;3.87;;;2.97;;
13309;SDS011;6723;48.256;16.402;2023-07-13T10:33:00;3.57;;;3.27;;
13309;SDS011;6723;48.256;16.402;2023-07-13T10:35:28;4.00;;;3.30;;
13309;SDS011;6723;48.256;16.402;2023-07-13T10:38:03;4.37;;;3.07;;
13309;SDS011;6723;48.256;16.402;2023-07-13T10:40:40;3.50;;;3.20;;
13309;SDS011;6723;48.256;16.402;2023-07-13T10:43:25;4.07;;;3.17;;
13309;SDS011;6723;48.256;16.402;2023-07-13T10:46:03;4.87;;;2.90;;
13309;SDS011;6723;48.256;16.402;2023-07-13T10:48:31;3.07;;;2.83;;
13309;SDS011;6723;48.256;16.402;2023-07-13T10:50:59;3.40;;;3.10;;
13309;SDS011;6723;48.256;16.402;2023-07-13T10:56:03;4.30;;;3.07;;
13309;SDS011;6723;48.256;16.402;2023-07-13T10:59:01;3.23;;;3.00;;
13309;SDS011;6723;48.256;16.402;2023-07-13T11:04:56;3.53;;;2.80;;
13309;SDS011;6723;48.256;16.402;2023-07-13T11:12:59;3.53;;;2.60;;
13309;SDS011;6723;48.256;16.402;2023-07-13T11:15:43;5.33;;;3.07;;
13309;SDS011;6723;48.256;16.402;2023-07-13T11:18:20;3.30;;;3.00;;
13309;SDS011;6723;48.256;16.402;2023-07-13T11:20:50;4.07;;;3.00;;
13309;SDS011;6723;48.256;16.402;2023-07-13T11:25:44;3.40;;;2.97;;
13309;SDS011;6723;48.256;16.402;2023-07-13T11:35:51;3.20;;;2.90;;
13309;SDS011;6723;48.256;16.402;2023-07-13T11:41:17;3.40;;;2.80;;
13309;SDS011;6723;48.256;16.402;2023-07-13T11:44:19;4.03;;;2.70;;
13309;SDS011;6723;48.256;16.402;2023-07-13T11:46:47;3.00;;;2.70;;
13309;SDS011;6723;48.256;16.402;2023-07-13T11:49:17;3.13;;;2.80;;
13309;SDS011;6723;48.256;16.402;2023-07-13T11:51:43;3.73;;;2.50;;
13309;SDS011;6723;48.256;16.402;2023-07-13T11:54:17;3.90;;;2.97;;
13309;SDS011;6723;48.256;16.402;2023-07-13T11:56:45;3.63;;;2.70;;
13309;SDS011;6723;48.256;16.402;2023-07-13T11:59:11;4.40;;;2.83;;
13309;SDS011;6723;48.256;16.402;2023-07-13T12:01:43;3.10;;;2.80;;
13309;SDS011;6723;48.256;16.402;2023-07-13T12:04:22;3.70;;;2.70;;
13309;SDS011;6723;48.256;16.402;2023-07-13T12:06:54;4.33;;;2.70;;
13309;SDS011;6723;48.256;16.402;2023-07-13T12:09:25;4.47;;;2.67;;
13309;SDS011;6723;48.256;16.402;2023-07-13T12:11:52;4.93;;;2.73;;
13309;SDS011;6723;48.256;16.402;2023-07-13T12:14:19;3.40;;;2.73;;
13309;SDS011;6723;48.256;16.402;2023-07-13T12:16:58;8.33;;;3.00;;
13309;SDS011;6723;48.256;16.402;2023-07-13T12:19:28;3.57;;;2.83;;
13309;SDS011;6723;48.256;16.402;2023-07-13T12:21:58;6.63;;;2.60;;
13309;SDS011;6723;48.256;16.402;2023-07-13T12:24:25;6.60;;;2.73;;
13309;SDS011;6723;48.256;16.402;2023-07-13T12:26:58;3.20;;;2.90;;
13309;SDS011;6723;48.256;16.402;2023-07-13T12:29:26;3.10;;;2.67;;
13309;SDS011;6723;48.256;16.402;2023-07-13T12:31:52;4.83;;;2.60;;
13309;SDS011;6723;48.256;16.402;2023-07-13T12:34:20;3.87;;;2.40;;
13309;SDS011;6723;48.256;16.402;2023-07-13T12:39:24;3.87;;;2.70;;
13309;SDS011;6723;48.256;16.402;2023-07-13T12:44:50;4.63;;;2.83;;
13309;SDS011;6723;48.256;16.402;2023-07-13T12:47:38;3.90;;;2.57;;
13309;SDS011;6723;48.256;16.402;2023-07-13T12:52:43;2.80;;;2.60;;
13309;SDS011;6723;48.256;16.402;2023-07-13T12:55:17;2.70;;;2.50;;
13309;SDS011;6723;48.256;16.402;2023-07-13T13:00:29;3.47;;;2.73;;
13309;SDS011;6723;48.256;16.402;2023-07-13T13:02:58;3.43;;;2.70;;
13309;SDS011;6723;48.256;16.402;2023-07-13T13:05:29;3.67;;;2.57;;
13309;SDS011;6723;48.256;16.402;2023-07-13T13:07:55;5.47;;;3.20;;
13309;SDS011;6723;48.256;16.402;2023-07-13T13:10:22;2.73;;;2.53;;
13309;SDS011;6723;48.256;16.402;2023-07-13T13:12:49;3.20;;;2.70;;
13309;SDS011;6723;48.256;16.402;2023-07-13T13:15:15;4.27;;;2.73;;
13309;SDS011;6723;48.256;16.402;2023-07-13T13:17:41;3.53;;;2.50;;
13309;SDS011;6723;48.256;16.402;2023-07-13T13:20:18;3.83;;;2.57;;
13309;SDS011;6723;48.256;16.402;2023-07-13T13:22:45;3.33;;;2.60;;
13309;SDS011;6723;48.256;16.402;2023-07-13T13:25:11;3.10;;;2.60;;
13309;SDS011;6723;48.256;16.402;2023-07-13T13:27:39;4.00;;;2.50;;
13309;SDS011;6723;48.256;16.402;2023-07-13T13:30:16;3.53;;;2.43;;
13309;SDS011;6723;48.256;16.402;2023-07-13T13:32:43;3.60;;;2.70;;
13309;SDS011;6723;48.256;16.402;2023-07-13T13:35:14;5.37;;;3.60;;
13309;SDS011;6723;48.256;16.402;2023-07-13T13:37:43;2.90;;;2.63;;
13309;SDS011;6723;48.256;16.402;2023-07-13T13:40:19;2.83;;;2.60;;
13309;SDS011;6723;48.256;16.402;2023-07-13T13:42:48;4.23;;;2.73;;
13309;SDS011;6723;48.256;16.402;2023-07-13T13:45:15;3.50;;;2.80;;
13309;SDS011;6723;48.256;16.402;2023-07-13T13:47:43;4.30;;;2.50;;
13309;SDS011;6723;48.256;16.402;2023-07-13T13:50:13;4.10;;;2.90;;
13309;SDS011;6723;48.256;16.402;2023-07-13T13:52:43;3.57;;;2.43;;
13309;SDS011;6723;48.256;16.402;2023-07-13T13:55:13;3.60;;;2.80;;
13309;SDS011;6723;48.256;16.402;2023-07-13T13:57:47;4.43;;;2.97;;
13309;SDS011;6723;48.256;16.402;2023-07-13T14:00:14;3.80;;;2.77;;
13309;SDS011;6723;48.256;16.402;2023-07-13T14:02:45;4.43;;;2.40;;
13309;SDS011;6723;48.256;16.402;2023-07-13T14:05:15;4.20;;;2.80;;
13309;SDS011;6723;48.256;16.402;2023-07-13T14:07:44;3.20;;;2.83;;
13309;SDS011;6723;48.256;16.402;2023-07-13T14:10:12;3.97;;;2.70;;
13309;SDS011;6723;48.256;16.402;2023-07-13T14:12:40;2.87;;;2.67;;
13309;SDS011;6723;48.256;16.402;2023-07-13T14:15:24;3.30;;;3.00;;
13309;SDS011;6723;48.256;16.402;2023-07-13T14:17:51;3.00;;;2.80;;
13309;SDS011;6723;48.256;16.402;2023-07-13T14:20:19;3.67;;;2.77;;
13309;SDS011;6723;48.256;16.402;2023-07-13T14:22:49;2.97;;;2.70;;
13309;SDS011;6723;48.256;16.402;2023-07-13T14:25:16;3.97;;;2.60;;
13309;SDS011;6723;48.256;16.402;2023-07-13T14:27:44;3.50;;;3.20;;
13309;SDS011;6723;48.256;16.402;2023-07-13T14:30:15;3.87;;;2.97;;
13309;SDS011;6723;48.256;16.402;2023-07-13T14:32:43;7.23;;;2.90;;
13309;SDS011;6723;48.256;16.402;2023-07-13T14:35:14;3.07;;;2.77;;
13309;SDS011;6723;48.256;16.402;2023-07-13T14:37:40;3.60;;;3.07;;
13309;SDS011;6723;48.256;16.402;2023-07-13T14:40:14;3.30;;;3.00;;
13309;SDS011;6723;48.256;16.402;2023-07-13T14:42:56;3.80;;;3.00;;
13309;SDS011;6723;48.256;16.402;2023-07-13T14:45:22;5.83;;;2.93;;
13309;SDS011;6723;48.256;16.402;2023-07-13T14:47:49;3.83;;;3.20;;
13309;SDS011;6723;48.256;16.402;2023-07-13T14:50:20;4.73;;;2.93;;
13309;SDS011;6723;48.256;16.402;2023-07-13T14:52:50;4.53;;;3.07;;
13309;SDS011;6723;48.256;16.402;2023-07-13T14:55:17;4.07;;;2.90;;
13309;SDS011;6723;48.256;16.402;2023-07-13T14:57:44;5.97;;;3.23;;
13309;SDS011;6723;48.256;16.402;2023-07-13T15:00:21;4.10;;;3.20;;
13309;SDS011;6723;48.256;16.402;2023-07-13T15:02:51;3.73;;;2.90;;
13309;SDS011;6723;48.256;16.402;2023-07-13T15:05:20;3.07;;;2.77;;
13309;SDS011;6723;48.256;16.402;2023-07-13T15:07:49;3.60;;;2.90;;
13309;SDS011;6723;48.256;16.402;2023-07-13T15:10:25;4.20;;;2.70;;
13309;SDS011;6723;48.256;16.402;2023-07-13T15:12:56;4.20;;;2.60;;
13309;SDS011;6723;48.256;16.402;2023-07-13T15:15:39;3.03;;;2.63;;
13309;SDS011;6723;48.256;16.402;2023-07-13T15:18:11;4.87;;;3.30;;
13309;SDS011;6723;48.256;16.402;2023-07-13T15:20:39;6.13;;;3.13;;
13309;SDS011;6723;48.256;16.402;2023-07-13T15:23:05;5.00;;;3.10;;
13309;SDS011;6723;48.256;16.402;2023-07-13T15:25:32;5.67;;;3.00;;
13309;SDS011;6723;48.256;16.402;2023-07-13T15:27:59;4.40;;;2.60;;
13309;SDS011;6723;48.256;16.402;2023-07-13T15:30:27;3.43;;;3.10;;
13309;SDS011;6723;48.256;16.402;2023-07-13T15:32:56;3.33;;;2.60;;
13309;SDS011;6723;48.256;16.402;2023-07-13T15:35:27;3.80;;;2.67;;
13309;SDS011;6723;48.256;16.402;2023-07-13T15:37:53;4.90;;;3.07;;
13309;SDS011;6723;48.256;16.402;2023-07-13T15:40:19;5.50;;;2.80;;
13309;SDS011;6723;48.256;16.402;2023-07-13T15:42:50;3.27;;;2.97;;
13309;SDS011;6723;48.256;16.402;2023-07-13T15:45:18;4.47;;;2.70;;
13309;SDS011;6723;48.256;16.402;2023-07-13T15:47:46;4.17;;;2.83;;
13309;SDS011;6723;48.256;16.402;2023-07-13T15:50:14;3.80;;;2.80;;
13309;SDS011;6723;48.256;16.402;2023-07-13T15:52:41;5.07;;;2.80;;
13309;SDS011;6723;48.256;16.402;2023-07-13T15:55:10;7.13;;;2.90;;